• Join FlightAware (Why Join?)
  • Login
  • US Flag 
03:02AM EDT


 

Airport Tracker/Info


-or-


 

Live Flight TrackerFlight Track Log ✈ N627HS ✈ 19-Jun-2013 ✈ KMSL - KIKV

Flight Track Log - Related Links

Times and Time Zones

All times are in EDT time to prevent confusion due to time zone crossing. See the N627HS flight status page for this flight to view local times or setup timezone preferences in your user account.

Time Position Orientation Groundspeed Altitude Reporting Facility
EDT Latitude Longitude Course Direction KTS MPH feet Rate Location/Type
06:10PM 35.0859 -87.8686 329° Northwest  Level FlightAware Approximate
06:14PM 34.7928 -87.6792 312° West 303 349 2,800  Level Memphis Center
06:15PM 34.8417 -87.7206 325° Northwest 246 283 4,400 1,680 Climbing Memphis Center
06:16PM 34.8925 -87.7594 328° Northwest 227 261 6,200 1,800 Climbing Memphis Center
06:17PM 34.9494 -87.7881 338° Northwest 222 255 8,000 1,740 Climbing Memphis Center
06:18PM 34.9983 -87.8297 325° Northwest 217 250 9,700 1,380 Climbing Memphis Center
06:19PM 35.0533 -87.8711 328° Northwest 217 250 10,800 1,320 Climbing Memphis Center
06:20PM 35.1125 -87.9100 332° Northwest 227 261 12,400 1,440 Climbing Memphis Center
06:21PM 35.1675 -87.9542 327° Northwest 233 268 13,700 780 Climbing Memphis Center
06:22PM 35.2289 -88.0033 327° Northwest 245 282 14,000 300 Climbing Memphis Center
06:23PM 35.2989 -88.0572 328° Northwest 270 311 14,400 1,200 Climbing Memphis Center
06:24PM 35.3708 -88.1111 329° Northwest 288 331 16,400 1,680 Climbing Memphis Center
06:25PM 35.4300 -88.1531 330° Northwest 276 318 17,800 1,380 Climbing Memphis Center
06:26PM 35.4933 -88.1997 329° Northwest 271 312 19,200 1,200 Climbing Memphis Center
06:27PM 35.5525 -88.2492 326° Northwest 266 306 20,200 1,020 Climbing Memphis Center
06:28PM 35.6158 -88.2986 328° Northwest 266 306 21,300 1,140 Climbing Memphis Center
06:29PM 35.6794 -88.3508 326° Northwest 266 306 22,500 1,140 Climbing Memphis Center
06:30PM 35.7406 -88.3978 328° Northwest 266 306 23,600 1,020 Climbing Memphis Center
06:31PM 35.8061 -88.4450 330° Northwest 266 306 24,600 1,140 Climbing Memphis Center
06:32PM 35.8672 -88.4972 325° Northwest 266 306 25,900 1,080 Climbing Memphis Center
06:33PM 35.9264 -88.5447 327° Northwest 266 306 26,800 780 Climbing Memphis Center
06:34PM 35.9897 -88.5944 328° Northwest 266 306 27,500 660 Climbing Memphis Center
06:35PM 36.0550 -88.6444 328° Northwest 271 312 28,200 720 Climbing Memphis Center
06:36PM 36.1203 -88.6997 326° Northwest 271 312 29,000 780 Climbing Memphis Center
06:37PM 36.1878 -88.7522 328° Northwest 271 312 29,800 720 Climbing Memphis Center
06:38PM 36.2508 -88.8025 327° Northwest 276 318 30,500 660 Climbing Memphis Center
06:39PM 36.3183 -88.8553 328° Northwest 281 323 31,200 660 Climbing Memphis Center
06:40PM 36.3856 -88.9108 326° Northwest 286 329 31,900 600 Climbing Memphis Center
06:41PM 36.4531 -88.9611 329° Northwest 286 329 32,500 600 Climbing Memphis Center
06:42PM 36.5225 -89.0167 327° Northwest 286 329 33,200 660 Climbing Memphis Center
06:43PM 36.5897 -89.0725 326° Northwest 286 329 33,900 360 Climbing Memphis Center
06:44PM 36.6592 -89.1308 326° Northwest 286 329 34,000  Climbing Memphis Center
06:45PM 36.7283 -89.1894 326° Northwest 296 341 34,000  Level Memphis Center
06:46PM 36.8019 -89.2478 328° Northwest 309 356 34,000  Level Memphis Center
06:47PM 36.8794 -89.3117 327° Northwest 320 368 34,000  Level Memphis Center
06:48PM 36.9572 -89.3756 327° Northwest 326 375 34,000  Level Memphis Center
06:49PM 37.0347 -89.4394 327° Northwest 331 381 34,000  Level Memphis Center
06:50PM 37.1258 -89.5139 327° Northwest 342 394 34,000  Level Kansas City Center
06:51PM 37.2067 -89.5778 328° Northwest 343 395 34,000  Level Kansas City Center
06:52PM 37.2861 -89.6453 326° Northwest 346 398 34,000  Level Kansas City Center
06:53PM 37.3681 -89.7114 327° Northwest 349 402 34,000  Level Kansas City Center
06:54PM 37.4475 -89.7775 327° Northwest 345 397 34,000  Level Kansas City Center
06:55PM 37.5286 -89.8433 327° Northwest 346 398 34,000  Level Kansas City Center
06:56PM 37.6203 -89.9189 327° Northwest 350 403 34,000  Level Kansas City Center
06:57PM 37.7011 -89.9856 327° Northwest 348 400 34,000  Level Kansas City Center
06:58PM 37.7819 -90.0522 327° Northwest 347 399 34,000  Level Kansas City Center
06:59PM 37.8625 -90.1200 326° Northwest 348 400 34,000  Level Kansas City Center
07:00PM 37.9433 -90.1903 326° Northwest 351 404 34,000  Level Kansas City Center
07:01PM 38.0406 -90.2725 326° Northwest 350 403 34,000  Level Kansas City Center
07:02PM 38.1217 -90.3408 326° Northwest 351 404 34,000  Level Kansas City Center
07:03PM 38.2028 -90.4108 326° Northwest 351 404 34,000  Level Kansas City Center
07:04PM 38.2850 -90.4806 326° Northwest 352 405 34,000  Level Kansas City Center
07:05PM 38.3669 -90.5514 326° Northwest 354 407 34,000  Level Kansas City Center
07:06PM 38.4536 -90.6253 326° Northwest 354 407 34,000  Level Kansas City Center
07:07PM 38.5358 -90.6953 326° Northwest 355 409 34,000 -360 Level Kansas City Center
07:08PM 38.6353 -90.7819 326° Northwest 359 413 33,300 -780 Descending Kansas City Center
07:09PM 38.7208 -90.8556 326° Northwest 367 422 32,500 -540 Descending Kansas City Center
07:10PM 38.8103 -90.9319 326° Northwest 377 434 32,200 -300 Descending Kansas City Center
07:11PM 38.8989 -91.0089 326° Northwest 381 438 32,000 -120 Descending Kansas City Center
07:12PM 38.9861 -91.0828 327° Northwest 379 436 32,000  Level Kansas City Center
07:13PM 39.0717 -91.1583 326° Northwest 376 433 32,000  Level Kansas City Center
07:14PM 39.1556 -91.2333 325° Northwest 372 428 32,000  Level Kansas City Center
07:16PM 39.2569 -91.3217 326° Northwest 369 425 32,000  Level Kansas City Center
07:17PM 39.3414 -91.3969 325° Northwest 368 423 32,000 -480 Level Kansas City Center
07:18PM 39.4289 -91.4733 326° Northwest 377 434 31,100 -540 Descending Kansas City Center
07:19PM 39.5106 -91.5478 325° Northwest 383 441 31,000 -360 Descending Kansas City Center
07:20PM 39.6158 -91.6414 326° Northwest 386 444 30,400 -540 Descending Kansas City Center
07:21PM 39.7036 -91.7206 325° Northwest 387 445 30,000 -240 Descending Kansas City Center
07:22PM 39.7917 -91.7983 326° Northwest 388 447 30,000  Level Kansas City Center
07:23PM 39.8781 -91.8753 326° Northwest 382 440 30,000  Level Kansas City Center
07:24PM 39.9614 -91.9533 324° Northwest 375 432 30,000  Level Kansas City Center
07:25PM 40.0639 -92.0428 326° Northwest 373 429 30,000  Level Kansas City Center
07:26PM 40.1481 -92.1189 325° Northwest 374 430 30,000  Level Kansas City Center
07:27PM 40.2311 -92.1956 325° Northwest 372 428 30,000  Level Kansas City Center
07:28PM 40.3147 -92.2697 326° Northwest 371 427 30,000  Level Kansas City Center
07:29PM 40.4067 -92.3553 325° Northwest 373 429 30,000 -300 Level Kansas City Center
07:30PM 40.4922 -92.4317 326° Northwest 373 429 29,400 -1,260 Descending Kansas City Center
07:31PM 40.5767 -92.5167 323° Northwest 378 435 27,400 -2,100 Descending Kansas City Center
07:32PM 40.6525 -92.5872 325° Northwest 393 452 25,700 -1,860 Descending Chicago Center
07:33PM 40.7400 -92.6658 326° Northwest 387 445 24,100 -2,040 Descending Chicago Center
07:34PM 40.8375 -92.7558 325° Northwest 364 419 21,600 -2,400 Descending Chicago Center
07:34PM 40.8856 -92.8003 325° Northwest 359 413 20,100 -2,400 Descending Minneapolis Center
07:36PM 40.9628 -92.8733 324° Northwest 349 402 17,600 -2,460 Descending Minneapolis Center
07:37PM 41.0392 -92.9447 325° Northwest 342 394 15,100 -2,340 Descending Minneapolis Center
07:38PM 41.1117 -93.0119 325° Northwest 328 377 12,800 -2,520 Descending Minneapolis Center
07:39PM 41.1903 -93.0842 325° Northwest 299 344 10,000 -2,520 Descending Minneapolis Center
07:40PM 41.2556 -93.1453 325° Northwest 285 328 7,600 -2,460 Descending Minneapolis Center
07:41PM 41.3217 -93.2125 323° Northwest 279 321 5,000 -1,740 Descending Minneapolis Center
07:42PM 41.3825 -93.2689 325° Northwest 267 307 4,000 -480 Descending Minneapolis Center
07:43PM 41.4431 -93.3281 324° Northwest 255 293 4,100 -360 Climbing Minneapolis Center
07:44PM 41.5039 -93.3858 325° Northwest 268 308 3,300 -540 Descending Minneapolis Center
07:45PM 41.5636 -93.4436 324° Northwest 245 282 3,000 -420 Descending Minneapolis Center
07:46PM 41.6089 -93.4878 324° Northwest 208 239 2,500 -360 Descending Minneapolis Center
07:47PM 41.6589 -93.5322 326° Northwest 202 232 2,300 -300 Descending Minneapolis Center
07:48PM 41.7056 -93.5333 359° North 169 194 2,000 -360 Descending Minneapolis Center
07:49PM 41.7228 -93.5567 315° West 167 192 1,600 -420 Descending Minneapolis Center